sensor_id;sensor_type;location;lat;lon;timestamp;pressure;altitude;pressure_sealevel;temperature;humidity
58769;BME280;44536;47.474;19.056;2023-04-22T00:02:50;100289.41;;;9.92;81.38
58769;BME280;44536;47.474;19.056;2023-04-22T00:05:54;100287.25;;;9.98;80.38
58769;BME280;44536;47.474;19.056;2023-04-22T00:08:56;100294.13;;;10.00;80.90
58769;BME280;44536;47.474;19.056;2023-04-22T00:11:59;100288.28;;;10.08;80.34
58769;BME280;44536;47.474;19.056;2023-04-22T00:15:03;100281.78;;;10.12;80.94
58769;BME280;44536;47.474;19.056;2023-04-22T00:18:05;100287.16;;;10.23;80.02
58769;BME280;44536;47.474;19.056;2023-04-22T00:21:14;100282.94;;;10.20;79.99
58769;BME280;44536;47.474;19.056;2023-04-22T00:24:17;100282.81;;;10.22;79.01
58769;BME280;44536;47.474;19.056;2023-04-22T00:27:19;100281.25;;;10.19;79.86
58769;BME280;44536;47.474;19.056;2023-04-22T00:30:22;100281.00;;;10.22;78.70
58769;BME280;44536;47.474;19.056;2023-04-22T00:33:24;100288.59;;;10.27;78.53
58769;BME280;44536;47.474;19.056;2023-04-22T00:36:27;100296.69;;;10.25;78.66
58769;BME280;44536;47.474;19.056;2023-04-22T00:39:30;100283.19;;;10.28;78.74
58769;BME280;44536;47.474;19.056;2023-04-22T00:42:33;100281.97;;;10.21;77.38
58769;BME280;44536;47.474;19.056;2023-04-22T00:45:35;100286.91;;;10.26;76.45
58769;BME280;44536;47.474;19.056;2023-04-22T00:48:38;100280.28;;;10.20;78.76
58769;BME280;44536;47.474;19.056;2023-04-22T00:51:40;100281.13;;;10.21;78.73
58769;BME280;44536;47.474;19.056;2023-04-22T00:54:43;100284.31;;;10.13;79.18
58769;BME280;44536;47.474;19.056;2023-04-22T00:57:47;100288.78;;;10.13;78.83
58769;BME280;44536;47.474;19.056;2023-04-22T01:00:50;100292.59;;;10.09;80.44
58769;BME280;44536;47.474;19.056;2023-04-22T01:03:53;100289.34;;;10.05;81.49
58769;BME280;44536;47.474;19.056;2023-04-22T01:06:56;100295.22;;;9.98;81.00
58769;BME280;44536;47.474;19.056;2023-04-22T01:09:58;100296.66;;;10.02;81.19
58769;BME280;44536;47.474;19.056;2023-04-22T01:13:01;100298.78;;;9.85;80.34
58769;BME280;44536;47.474;19.056;2023-04-22T01:16:04;100293.16;;;9.66;81.81
58769;BME280;44536;47.474;19.056;2023-04-22T01:19:10;100299.41;;;9.65;82.62
58769;BME280;44536;47.474;19.056;2023-04-22T01:22:13;100299.13;;;9.81;80.66
58769;BME280;44536;47.474;19.056;2023-04-22T01:25:16;100294.72;;;9.69;81.67
58769;BME280;44536;47.474;19.056;2023-04-22T01:28:19;100298.28;;;9.56;82.46
58769;BME280;44536;47.474;19.056;2023-04-22T01:31:22;100299.66;;;9.49;83.25
58769;BME280;44536;47.474;19.056;2023-04-22T01:34:25;100299.50;;;9.40;83.74
58769;BME280;44536;47.474;19.056;2023-04-22T01:37:28;100291.66;;;9.38;83.29
58769;BME280;44536;47.474;19.056;2023-04-22T01:40:31;100297.69;;;9.40;82.63
58769;BME280;44536;47.474;19.056;2023-04-22T01:43:35;100294.16;;;9.52;80.32
58769;BME280;44536;47.474;19.056;2023-04-22T01:46:37;100299.34;;;9.54;81.08
58769;BME280;44536;47.474;19.056;2023-04-22T01:49:40;100297.53;;;9.54;80.63
58769;BME280;44536;47.474;19.056;2023-04-22T01:52:43;100305.59;;;9.77;77.15
58769;BME280;44536;47.474;19.056;2023-04-22T01:55:46;100304.13;;;9.96;75.41
58769;BME280;44536;47.474;19.056;2023-04-22T01:58:48;100303.03;;;9.99;75.42
58769;BME280;44536;47.474;19.056;2023-04-22T02:01:51;100302.59;;;10.05;75.67
58769;BME280;44536;47.474;19.056;2023-04-22T02:04:54;100301.00;;;10.03;76.07
58769;BME280;44536;47.474;19.056;2023-04-22T02:07:56;100310.09;;;10.11;75.57
58769;BME280;44536;47.474;19.056;2023-04-22T02:10:59;100307.53;;;10.10;75.53
58769;BME280;44536;47.474;19.056;2023-04-22T02:14:01;100296.78;;;10.00;75.04
58769;BME280;44536;47.474;19.056;2023-04-22T02:17:04;100295.50;;;10.06;75.59
58769;BME280;44536;47.474;19.056;2023-04-22T02:20:07;100304.34;;;9.93;75.91
58769;BME280;44536;47.474;19.056;2023-04-22T02:23:11;100297.25;;;9.94;76.19
58769;BME280;44536;47.474;19.056;2023-04-22T02:26:17;100294.47;;;9.84;76.04
58769;BME280;44536;47.474;19.056;2023-04-22T02:29:19;100295.53;;;9.82;76.13
58769;BME280;44536;47.474;19.056;2023-04-22T02:32:21;100305.59;;;9.77;76.40
58769;BME280;44536;47.474;19.056;2023-04-22T02:35:24;100297.38;;;9.69;76.61
58769;BME280;44536;47.474;19.056;2023-04-22T02:38:26;100296.66;;;9.67;76.90
58769;BME280;44536;47.474;19.056;2023-04-22T02:41:29;100298.44;;;9.66;76.85
58769;BME280;44536;47.474;19.056;2023-04-22T02:44:31;100296.88;;;9.63;76.46
58769;BME280;44536;47.474;19.056;2023-04-22T02:47:34;100290.22;;;9.58;76.15
58769;BME280;44536;47.474;19.056;2023-04-22T02:50:36;100289.38;;;9.57;74.69
58769;BME280;44536;47.474;19.056;2023-04-22T02:53:39;100297.44;;;9.56;75.15
58769;BME280;44536;47.474;19.056;2023-04-22T02:56:42;100296.88;;;9.63;74.62
58769;BME280;44536;47.474;19.056;2023-04-22T02:59:44;100290.28;;;9.69;75.15
58769;BME280;44536;47.474;19.056;2023-04-22T03:02:48;100292.88;;;9.58;75.88
58769;BME280;44536;47.474;19.056;2023-04-22T03:05:51;100296.69;;;9.54;76.51
58769;BME280;44536;47.474;19.056;2023-04-22T03:08:54;100293.19;;;9.53;76.02
58769;BME280;44536;47.474;19.056;2023-04-22T03:11:57;100290.56;;;9.53;76.85
58769;BME280;44536;47.474;19.056;2023-04-22T03:14:59;100296.34;;;9.58;76.77
58769;BME280;44536;47.474;19.056;2023-04-22T03:18:03;100295.50;;;9.58;76.47
58769;BME280;44536;47.474;19.056;2023-04-22T03:21:06;100300.25;;;9.66;75.94
58769;BME280;44536;47.474;19.056;2023-04-22T03:24:08;100299.19;;;9.68;76.15
58769;BME280;44536;47.474;19.056;2023-04-22T03:27:11;100302.78;;;9.67;77.46
58769;BME280;44536;47.474;19.056;2023-04-22T03:30:13;100307.25;;;9.67;77.33
58769;BME280;44536;47.474;19.056;2023-04-22T03:33:17;100306.00;;;9.59;77.49
58769;BME280;44536;47.474;19.056;2023-04-22T03:36:20;100301.87;;;9.55;77.69
58769;BME280;44536;47.474;19.056;2023-04-22T03:39:23;100308.63;;;9.59;77.56
58769;BME280;44536;47.474;19.056;2023-04-22T03:42:25;100305.16;;;9.59;nan
58769;BME280;44536;47.474;19.056;2023-04-22T03:45:28;100307.91;;;9.57;77.37
58769;BME280;44536;47.474;19.056;2023-04-22T03:48:31;100310.78;;;9.54;77.62
58769;BME280;44536;47.474;19.056;2023-04-22T03:51:37;100313.59;;;9.64;77.38
58769;BME280;44536;47.474;19.056;2023-04-22T03:54:39;100311.28;;;9.59;77.58
58769;BME280;44536;47.474;19.056;2023-04-22T03:57:42;100315.28;;;9.65;77.96
58769;BME280;44536;47.474;19.056;2023-04-22T04:00:45;100319.28;;;9.71;77.70
58769;BME280;44536;47.474;19.056;2023-04-22T04:03:48;100318.91;;;9.64;77.85
58769;BME280;44536;47.474;19.056;2023-04-22T04:06:51;100312.88;;;9.62;78.22
58769;BME280;44536;47.474;19.056;2023-04-22T04:09:54;100321.44;;;9.66;77.79
58769;BME280;44536;47.474;19.056;2023-04-22T04:12:57;100315.81;;;9.70;77.63
58769;BME280;44536;47.474;19.056;2023-04-22T04:16:00;100322.69;;;9.73;77.88
58769;BME280;44536;47.474;19.056;2023-04-22T04:19:04;100320.88;;;9.73;77.97
58769;BME280;44536;47.474;19.056;2023-04-22T04:22:08;100332.50;;;9.83;78.02
58769;BME280;44536;47.474;19.056;2023-04-22T04:25:13;100333.13;;;9.87;77.59
58769;BME280;44536;47.474;19.056;2023-04-22T04:28:16;100339.41;;;9.97;77.37
58769;BME280;44536;47.474;19.056;2023-04-22T04:31:19;100338.84;;;10.05;76.73
58769;BME280;44536;47.474;19.056;2023-04-22T04:34:23;100335.09;;;10.07;77.65
58769;BME280;44536;47.474;19.056;2023-04-22T04:37:25;100345.69;;;10.20;76.86
58769;BME280;44536;47.474;19.056;2023-04-22T04:40:29;100346.44;;;10.33;76.35
58769;BME280;44536;47.474;19.056;2023-04-22T04:43:32;100350.59;;;10.59;73.52
58769;BME280;44536;47.474;19.056;2023-04-22T04:46:36;100349.94;;;11.02;71.98
58769;BME280;44536;47.474;19.056;2023-04-22T04:49:39;100348.87;;;11.38;69.68
58769;BME280;44536;47.474;19.056;2023-04-22T04:52:42;100354.25;;;11.48;69.30
58769;BME280;44536;47.474;19.056;2023-04-22T04:55:45;100345.44;;;11.47;69.49
58769;BME280;44536;47.474;19.056;2023-04-22T04:58:48;100349.78;;;11.59;68.80
58769;BME280;44536;47.474;19.056;2023-04-22T05:01:51;100354.97;;;11.61;69.32
58769;BME280;44536;47.474;19.056;2023-04-22T05:04:54;100349.53;;;11.63;67.91
58769;BME280;44536;47.474;19.056;2023-04-22T05:07:57;100350.59;;;11.71;67.86
58769;BME280;44536;47.474;19.056;2023-04-22T05:11:00;100357.16;;;11.78;68.14
58769;BME280;44536;47.474;19.056;2023-04-22T05:14:04;100358.09;;;11.88;67.27
58769;BME280;44536;47.474;19.056;2023-04-22T05:17:07;100356.31;;;12.10;67.28
58769;BME280;44536;47.474;19.056;2023-04-22T05:20:09;100350.19;;;12.51;64.77
58769;BME280;44536;47.474;19.056;2023-04-22T05:23:13;100354.03;;;13.00;62.46
58769;BME280;44536;47.474;19.056;2023-04-22T05:26:17;100358.00;;;13.15;62.19
58769;BME280;44536;47.474;19.056;2023-04-22T05:29:20;100355.28;;;13.26;61.31
58769;BME280;44536;47.474;19.056;2023-04-22T05:32:22;100350.00;;;12.84;61.37
58769;BME280;44536;47.474;19.056;2023-04-22T05:35:27;100360.91;;;12.81;61.78
58769;BME280;44536;47.474;19.056;2023-04-22T05:38:30;100357.28;;;14.61;57.03
58769;BME280;44536;47.474;19.056;2023-04-22T05:41:34;100371.91;;;15.60;52.21
58769;BME280;44536;47.474;19.056;2023-04-22T05:44:37;100357.28;;;16.70;49.31
58769;BME280;44536;47.474;19.056;2023-04-22T05:47:40;100365.22;;;17.66;46.46
58769;BME280;44536;47.474;19.056;2023-04-22T05:50:42;100367.38;;;19.57;41.90
58769;BME280;44536;47.474;19.056;2023-04-22T05:53:45;100367.56;;;20.17;40.37
58769;BME280;44536;47.474;19.056;2023-04-22T05:56:47;100367.91;;;18.65;42.86
58769;BME280;44536;47.474;19.056;2023-04-22T05:59:50;100373.06;;;16.55;48.47
58769;BME280;44536;47.474;19.056;2023-04-22T06:02:53;100376.72;;;15.09;52.79
58769;BME280;44536;47.474;19.056;2023-04-22T06:05:56;100375.41;;;14.18;55.84
58769;BME280;44536;47.474;19.056;2023-04-22T06:08:58;100369.44;;;13.76;57.60
58769;BME280;44536;47.474;19.056;2023-04-22T06:12:01;100382.72;;;13.47;56.50
58769;BME280;44536;47.474;19.056;2023-04-22T06:15:04;100378.00;;;13.80;55.39
58769;BME280;44536;47.474;19.056;2023-04-22T06:18:07;100380.25;;;16.99;47.07
58769;BME280;44536;47.474;19.056;2023-04-22T06:21:10;100376.97;;;20.67;38.74
58769;BME280;44536;47.474;19.056;2023-04-22T06:24:13;100387.53;;;22.52;34.58
58769;BME280;44536;47.474;19.056;2023-04-22T06:27:16;100390.50;;;23.41;32.36
58769;BME280;44536;47.474;19.056;2023-04-22T06:30:18;100385.94;;;24.30;30.90
58769;BME280;44536;47.474;19.056;2023-04-22T06:33:22;100388.03;;;25.27;28.72
58769;BME280;44536;47.474;19.056;2023-04-22T06:36:25;100388.84;;;25.41;27.74
58769;BME280;44536;47.474;19.056;2023-04-22T06:39:32;100384.16;;;25.75;26.74
58769;BME280;44536;47.474;19.056;2023-04-22T06:42:38;100391.75;;;26.04;26.12
58769;BME280;44536;47.474;19.056;2023-04-22T06:45:50;100387.09;;;26.81;24.86
58769;BME280;44536;47.474;19.056;2023-04-22T06:48:52;100377.88;;;26.19;24.70
58769;BME280;44536;47.474;19.056;2023-04-22T06:51:56;100379.09;;;26.61;24.41
58769;BME280;44536;47.474;19.056;2023-04-22T06:54:59;100379.25;;;26.97;25.50
58769;BME280;44536;47.474;19.056;2023-04-22T06:58:04;100378.94;;;29.45;21.94
58769;BME280;44536;47.474;19.056;2023-04-22T07:01:07;100381.06;;;29.08;23.12
58769;BME280;44536;47.474;19.056;2023-04-22T07:04:10;100379.47;;;28.24;23.19
58769;BME280;44536;47.474;19.056;2023-04-22T07:07:13;100382.69;;;28.32;23.61
58769;BME280;44536;47.474;19.056;2023-04-22T07:10:15;100379.16;;;27.84;23.41
58769;BME280;44536;47.474;19.056;2023-04-22T07:13:18;100383.22;;;26.95;22.32
58769;BME280;44536;47.474;19.056;2023-04-22T07:16:20;100384.81;;;27.46;22.83
58769;BME280;44536;47.474;19.056;2023-04-22T07:19:23;100384.59;;;27.04;21.86
58769;BME280;44536;47.474;19.056;2023-04-22T07:22:26;100386.44;;;27.10;23.08
58769;BME280;44536;47.474;19.056;2023-04-22T07:25:28;100385.09;;;26.69;21.79
58769;BME280;44536;47.474;19.056;2023-04-22T07:28:31;100380.41;;;25.62;21.97
58769;BME280;44536;47.474;19.056;2023-04-22T07:31:36;100384.72;;;24.92;24.15
58769;BME280;44536;47.474;19.056;2023-04-22T07:34:38;100383.97;;;24.11;24.68
58769;BME280;44536;47.474;19.056;2023-04-22T07:37:41;100390.78;;;23.94;24.69
58769;BME280;44536;47.474;19.056;2023-04-22T07:40:43;100396.00;;;24.89;25.05
58769;BME280;44536;47.474;19.056;2023-04-22T07:43:45;100395.16;;;25.22;23.65
58769;BME280;44536;47.474;19.056;2023-04-22T07:46:48;100392.87;;;23.16;25.27
58769;BME280;44536;47.474;19.056;2023-04-22T07:49:51;100389.44;;;22.58;27.69
58769;BME280;44536;47.474;19.056;2023-04-22T07:52:53;100389.56;;;21.93;27.73
58769;BME280;44536;47.474;19.056;2023-04-22T07:55:56;100388.91;;;21.25;28.04
58769;BME280;44536;47.474;19.056;2023-04-22T07:58:58;100391.44;;;19.90;30.73
58769;BME280;44536;47.474;19.056;2023-04-22T08:02:00;100386.31;;;19.16;31.48
58769;BME280;44536;47.474;19.056;2023-04-22T08:05:03;100386.50;;;18.91;32.33
58769;BME280;44536;47.474;19.056;2023-04-22T08:08:06;100382.63;;;19.01;33.34
58769;BME280;44536;47.474;19.056;2023-04-22T08:11:09;100378.50;;;19.54;32.69
58769;BME280;44536;47.474;19.056;2023-04-22T08:14:11;100385.03;;;19.43;32.33
58769;BME280;44536;47.474;19.056;2023-04-22T08:17:14;100378.97;;;18.86;32.23
58769;BME280;44536;47.474;19.056;2023-04-22T08:20:16;100386.50;;;19.07;32.09
58769;BME280;44536;47.474;19.056;2023-04-22T08:23:19;100386.00;;;19.03;32.21
58769;BME280;44536;47.474;19.056;2023-04-22T08:26:22;100380.50;;;18.64;33.05
58769;BME280;44536;47.474;19.056;2023-04-22T08:29:24;100383.97;;;19.05;33.14
58769;BME280;44536;47.474;19.056;2023-04-22T08:32:27;100380.50;;;19.52;31.63
58769;BME280;44536;47.474;19.056;2023-04-22T08:35:30;100383.34;;;19.50;31.03
58769;BME280;44536;47.474;19.056;2023-04-22T08:38:32;100386.09;;;19.26;31.44
58769;BME280;44536;47.474;19.056;2023-04-22T08:41:35;100388.34;;;18.98;32.38
58769;BME280;44536;47.474;19.056;2023-04-22T08:44:38;100380.69;;;18.71;32.25
58769;BME280;44536;47.474;19.056;2023-04-22T08:47:42;100389.34;;;19.05;31.65
58769;BME280;44536;47.474;19.056;2023-04-22T08:50:46;100384.50;;;19.01;31.45
58769;BME280;44536;47.474;19.056;2023-04-22T08:53:49;100378.78;;;19.04;31.92
58769;BME280;44536;47.474;19.056;2023-04-22T08:56:52;100387.50;;;19.14;31.49
58769;BME280;44536;47.474;19.056;2023-04-22T08:59:55;100378.50;;;19.54;31.97
58769;BME280;44536;47.474;19.056;2023-04-22T09:03:00;100378.00;;;19.81;31.53
58769;BME280;44536;47.474;19.056;2023-04-22T09:06:04;100374.97;;;19.54;32.68
58769;BME280;44536;47.474;19.056;2023-04-22T09:09:08;100375.56;;;19.72;31.85
58769;BME280;44536;47.474;19.056;2023-04-22T09:12:11;100364.34;;;20.22;30.48
58769;BME280;44536;47.474;19.056;2023-04-22T09:15:13;100371.94;;;20.64;31.65
58769;BME280;44536;47.474;19.056;2023-04-22T09:18:17;100373.25;;;20.68;30.58
58769;BME280;44536;47.474;19.056;2023-04-22T09:21:26;100369.00;;;21.26;29.24
58769;BME280;44536;47.474;19.056;2023-04-22T09:24:29;100377.81;;;21.64;29.09
58769;BME280;44536;47.474;19.056;2023-04-22T09:27:34;100379.37;;;21.14;28.81
58769;BME280;44536;47.474;19.056;2023-04-22T09:30:36;100374.50;;;20.95;29.42
58769;BME280;44536;47.474;19.056;2023-04-22T09:33:39;100373.88;;;21.08;28.93
58769;BME280;44536;47.474;19.056;2023-04-22T09:36:42;100374.75;;;20.86;28.48
58769;BME280;44536;47.474;19.056;2023-04-22T09:39:50;100369.19;;;20.87;29.69
58769;BME280;44536;47.474;19.056;2023-04-22T09:42:56;100367.62;;;20.78;28.14
58769;BME280;44536;47.474;19.056;2023-04-22T09:45:59;100366.63;;;21.08;28.57
58769;BME280;44536;47.474;19.056;2023-04-22T09:49:02;100363.41;;;22.08;27.23
58769;BME280;44536;47.474;19.056;2023-04-22T09:52:04;100364.41;;;22.71;25.55
58769;BME280;44536;47.474;19.056;2023-04-22T09:55:08;100351.38;;;23.37;25.46
58769;BME280;44536;47.474;19.056;2023-04-22T09:58:12;100348.25;;;23.33;25.13
58769;BME280;44536;47.474;19.056;2023-04-22T10:01:15;100336.06;;;24.18;25.11
58769;BME280;44536;47.474;19.056;2023-04-22T10:04:18;100338.31;;;24.01;24.30
58769;BME280;44536;47.474;19.056;2023-04-22T10:07:23;100332.84;;;23.82;24.47
58769;BME280;44536;47.474;19.056;2023-04-22T10:10:26;100329.66;;;24.65;24.81
58769;BME280;44536;47.474;19.056;2023-04-22T10:13:28;100327.50;;;25.27;23.16
58769;BME280;44536;47.474;19.056;2023-04-22T10:16:32;100327.75;;;24.99;24.52
58769;BME280;44536;47.474;19.056;2023-04-22T10:19:37;100323.50;;;25.36;23.08
58769;BME280;44536;47.474;19.056;2023-04-22T10:22:42;100328.59;;;25.77;22.30
58769;BME280;44536;47.474;19.056;2023-04-22T10:25:52;100324.75;;;25.47;22.99
58769;BME280;44536;47.474;19.056;2023-04-22T10:28:56;100318.66;;;25.96;22.60
58769;BME280;44536;47.474;19.056;2023-04-22T10:35:09;100325.19;;;27.19;20.65
58769;BME280;44536;47.474;19.056;2023-04-22T10:38:12;100318.37;;;26.04;22.32
58769;BME280;44536;47.474;19.056;2023-04-22T10:41:15;100310.38;;;28.30;19.85
58769;BME280;44536;47.474;19.056;2023-04-22T10:44:19;100308.41;;;28.49;19.21
58769;BME280;44536;47.474;19.056;2023-04-22T10:47:37;100296.75;;;28.77;18.74
58769;BME280;44536;47.474;19.056;2023-04-22T10:50:39;100306.56;;;27.89;19.67
58769;BME280;44536;47.474;19.056;2023-04-22T10:53:43;100295.13;;;28.52;19.16
58769;BME280;44536;47.474;19.056;2023-04-22T10:57:05;100296.00;;;29.51;17.65
58769;BME280;44536;47.474;19.056;2023-04-22T11:00:19;100300.31;;;30.21;17.35
58769;BME280;44536;47.474;19.056;2023-04-22T11:03:27;100297.63;;;30.71;17.23
58769;BME280;44536;47.474;19.056;2023-04-22T11:06:30;100289.88;;;29.21;18.63
58769;BME280;44536;47.474;19.056;2023-04-22T11:09:38;100296.12;;;28.28;19.41
58769;BME280;44536;47.474;19.056;2023-04-22T11:12:43;100303.50;;;27.97;19.28
58769;BME280;44536;47.474;19.056;2023-04-22T11:15:53;100295.56;;;26.43;20.58
58769;BME280;44536;47.474;19.056;2023-04-22T11:18:56;100293.38;;;24.60;23.97
58769;BME280;44536;47.474;19.056;2023-04-22T11:21:59;100286.41;;;25.10;22.98
58769;BME280;44536;47.474;19.056;2023-04-22T11:25:03;100295.09;;;25.90;21.37
58769;BME280;44536;47.474;19.056;2023-04-22T11:28:06;100292.00;;;26.67;20.23
58769;BME280;44536;47.474;19.056;2023-04-22T11:31:09;100282.28;;;25.01;21.94
58769;BME280;44536;47.474;19.056;2023-04-22T11:34:11;100289.31;;;23.29;24.95
58769;BME280;44536;47.474;19.056;2023-04-22T11:37:17;100295.22;;;22.76;24.54
58769;BME280;44536;47.474;19.056;2023-04-22T11:40:25;100284.63;;;23.09;24.17
58769;BME280;44536;47.474;19.056;2023-04-22T11:43:32;100290.81;;;22.48;26.49
58769;BME280;44536;47.474;19.056;2023-04-22T11:46:35;100291.72;;;22.55;24.71
58769;BME280;44536;47.474;19.056;2023-04-22T11:49:40;100286.75;;;22.30;24.69
58769;BME280;44536;47.474;19.056;2023-04-22T11:55:51;100291.25;;;22.02;25.02
58769;BME280;44536;47.474;19.056;2023-04-22T11:58:54;100290.81;;;22.20;25.83
58769;BME280;44536;47.474;19.056;2023-04-22T12:01:56;100290.56;;;22.00;27.06
58769;BME280;44536;47.474;19.056;2023-04-22T12:04:58;100282.97;;;22.53;25.98
58769;BME280;44536;47.474;19.056;2023-04-22T12:08:09;100285.75;;;22.87;25.44
58769;BME280;44536;47.474;19.056;2023-04-22T12:11:12;100277.50;;;24.70;23.68
58769;BME280;44536;47.474;19.056;2023-04-22T12:14:14;100272.91;;;25.93;22.87
58769;BME280;44536;47.474;19.056;2023-04-22T12:17:24;100280.22;;;26.98;20.15
58769;BME280;44536;47.474;19.056;2023-04-22T12:20:32;100274.09;;;28.29;20.07
58769;BME280;44536;47.474;19.056;2023-04-22T12:23:45;100270.09;;;30.11;17.40
58769;BME280;44536;47.474;19.056;2023-04-22T12:26:48;100267.31;;;29.94;18.59
58769;BME280;44536;47.474;19.056;2023-04-22T12:29:52;100270.00;;;30.73;18.02
58769;BME280;44536;47.474;19.056;2023-04-22T12:32:54;100267.97;;;31.67;16.54
58769;BME280;44536;47.474;19.056;2023-04-22T12:35:57;100267.59;;;30.26;17.16
58769;BME280;44536;47.474;19.056;2023-04-22T12:38:59;100270.56;;;28.99;18.30
58769;BME280;44536;47.474;19.056;2023-04-22T12:42:03;100269.66;;;30.02;17.55
58769;BME280;44536;47.474;19.056;2023-04-22T12:45:07;100265.25;;;29.73;17.85
58769;BME280;44536;47.474;19.056;2023-04-22T12:48:10;100250.22;;;29.18;17.63
58769;BME280;44536;47.474;19.056;2023-04-22T12:51:12;100252.69;;;26.45;20.77
58769;BME280;44536;47.474;19.056;2023-04-22T12:54:14;100254.31;;;25.96;20.63
58769;BME280;44536;47.474;19.056;2023-04-22T12:57:17;100238.38;;;27.48;20.97
58769;BME280;44536;47.474;19.056;2023-04-22T13:00:21;100242.00;;;26.87;20.00
58769;BME280;44536;47.474;19.056;2023-04-22T13:03:23;100244.34;;;24.81;22.30
58769;BME280;44536;47.474;19.056;2023-04-22T13:06:27;100242.25;;;24.83;23.51
58769;BME280;44536;47.474;19.056;2023-04-22T13:09:30;100242.50;;;24.49;24.05
58769;BME280;44536;47.474;19.056;2023-04-22T13:12:32;100238.16;;;24.34;22.88
58769;BME280;44536;47.474;19.056;2023-04-22T13:15:35;100235.81;;;24.05;23.21
58769;BME280;44536;47.474;19.056;2023-04-22T13:18:38;100235.59;;;23.26;23.88
58769;BME280;44536;47.474;19.056;2023-04-22T13:21:40;100239.16;;;22.92;24.52
58769;BME280;44536;47.474;19.056;2023-04-22T13:24:43;100229.06;;;23.07;25.16
58769;BME280;44536;47.474;19.056;2023-04-22T13:27:45;100232.81;;;23.54;24.75
58769;BME280;44536;47.474;19.056;2023-04-22T13:30:48;100232.72;;;22.58;25.28
58769;BME280;44536;47.474;19.056;2023-04-22T13:33:50;100227.91;;;22.82;26.21
58769;BME280;44536;47.474;19.056;2023-04-22T13:36:53;100228.91;;;23.15;25.65
58769;BME280;44536;47.474;19.056;2023-04-22T13:39:55;100220.75;;;22.74;25.28
58769;BME280;44536;47.474;19.056;2023-04-22T13:42:58;100223.16;;;22.90;24.68
58769;BME280;44536;47.474;19.056;2023-04-22T13:46:00;100221.06;;;22.86;25.00
58769;BME280;44536;47.474;19.056;2023-04-22T13:49:03;100212.53;;;22.54;25.12
58769;BME280;44536;47.474;19.056;2023-04-22T13:52:05;100209.87;;;22.05;26.43
58769;BME280;44536;47.474;19.056;2023-04-22T13:55:08;100218.72;;;21.99;27.90
58769;BME280;44536;47.474;19.056;2023-04-22T13:58:10;100213.87;;;21.94;27.23
58769;BME280;44536;47.474;19.056;2023-04-22T14:01:13;100215.88;;;21.86;27.71
58769;BME280;44536;47.474;19.056;2023-04-22T14:04:15;100212.78;;;21.89;27.66
58769;BME280;44536;47.474;19.056;2023-04-22T14:07:19;100201.19;;;21.67;27.53
58769;BME280;44536;47.474;19.056;2023-04-22T14:10:21;100215.41;;;21.75;29.12
58769;BME280;44536;47.474;19.056;2023-04-22T14:13:25;100213.25;;;21.92;27.46
58769;BME280;44536;47.474;19.056;2023-04-22T14:16:28;100204.06;;;21.65;27.54
58769;BME280;44536;47.474;19.056;2023-04-22T14:19:30;100210.16;;;21.53;27.37
58769;BME280;44536;47.474;19.056;2023-04-22T14:22:33;100210.75;;;21.69;27.87
58769;BME280;44536;47.474;19.056;2023-04-22T14:25:36;100209.13;;;21.96;28.39
58769;BME280;44536;47.474;19.056;2023-04-22T14:28:39;100214.44;;;21.83;27.80
58769;BME280;44536;47.474;19.056;2023-04-22T14:31:42;100210.13;;;21.67;27.28
58769;BME280;44536;47.474;19.056;2023-04-22T14:34:44;100207.56;;;21.44;28.82
58769;BME280;44536;47.474;19.056;2023-04-22T14:37:47;100196.13;;;21.42;27.33
58769;BME280;44536;47.474;19.056;2023-04-22T14:40:49;100205.56;;;21.32;30.32
58769;BME280;44536;47.474;19.056;2023-04-22T14:43:51;100207.19;;;21.26;28.90
58769;BME280;44536;47.474;19.056;2023-04-22T14:46:54;100202.87;;;21.32;28.97
58769;BME280;44536;47.474;19.056;2023-04-22T14:49:56;100204.50;;;21.26;29.89
58769;BME280;44536;47.474;19.056;2023-04-22T14:53:00;100203.19;;;21.22;28.14
58769;BME280;44536;47.474;19.056;2023-04-22T14:56:03;100196.59;;;20.95;28.20
58769;BME280;44536;47.474;19.056;2023-04-22T14:59:05;100208.75;;;21.06;28.91
58769;BME280;44536;47.474;19.056;2023-04-22T15:02:12;100197.88;;;20.99;29.67
58769;BME280;44536;47.474;19.056;2023-04-22T15:05:17;100195.75;;;21.09;29.17
58769;BME280;44536;47.474;19.056;2023-04-22T15:08:19;100194.59;;;21.33;28.14
58769;BME280;44536;47.474;19.056;2023-04-22T15:11:21;100197.59;;;21.09;27.26
58769;BME280;44536;47.474;19.056;2023-04-22T15:14:24;100191.91;;;21.19;27.00
58769;BME280;44536;47.474;19.056;2023-04-22T15:17:26;100199.19;;;21.03;27.73
58769;BME280;44536;47.474;19.056;2023-04-22T15:20:29;100197.13;;;21.20;26.50
58769;BME280;44536;47.474;19.056;2023-04-22T15:23:32;100196.22;;;20.98;29.99
58769;BME280;44536;47.474;19.056;2023-04-22T15:26:35;100196.03;;;21.00;27.91
58769;BME280;44536;47.474;19.056;2023-04-22T15:29:38;100198.88;;;20.77;29.42
58769;BME280;44536;47.474;19.056;2023-04-22T15:32:40;100187.78;;;20.57;29.09
58769;BME280;44536;47.474;19.056;2023-04-22T15:35:43;100191.44;;;20.64;28.63
58769;BME280;44536;47.474;19.056;2023-04-22T15:38:53;100192.81;;;20.75;28.33
58769;BME280;44536;47.474;19.056;2023-04-22T15:41:58;100194.47;;;20.91;27.94
58769;BME280;44536;47.474;19.056;2023-04-22T15:45:00;100189.00;;;20.69;27.96
58769;BME280;44536;47.474;19.056;2023-04-22T15:48:05;100189.31;;;20.37;28.79
58769;BME280;44536;47.474;19.056;2023-04-22T15:51:07;100192.66;;;20.24;29.21
58769;BME280;44536;47.474;19.056;2023-04-22T15:54:11;100194.56;;;20.01;31.17
58769;BME280;44536;47.474;19.056;2023-04-22T15:57:13;100192.53;;;20.03;30.01